createdAt,value
2023-05-13T00:05:54.446Z,85.91
2023-05-13T00:20:54.125Z,88.04
2023-05-13T00:35:54.306Z,89.11
2023-05-13T00:50:54.573Z,90.03
2023-05-13T01:05:54.753Z,91.41
2023-05-13T01:20:54.871Z,91.47
2023-05-13T01:35:55.024Z,91.33
2023-05-13T01:50:55.193Z,91.47
2023-05-13T02:05:55.438Z,91.99
2023-05-13T02:20:55.586Z,92.99
2023-05-13T02:35:55.812Z,93.55
2023-05-13T02:50:56.662Z,96.06
2023-05-13T03:05:56.839Z,97.19
2023-05-13T03:20:57.075Z,99.30
2023-05-13T03:35:57.316Z,98.58
2023-05-13T03:50:57.702Z,98.53
2023-05-13T04:05:57.785Z,96.90
2023-05-13T04:20:58.238Z,93.04
2023-05-13T04:35:58.891Z,88.64
2023-05-13T04:50:59.020Z,84.90
2023-05-13T05:05:59.986Z,80.08
2023-05-13T05:21:01.788Z,75.29
2023-05-13T05:36:02.192Z,67.06
2023-05-13T05:51:02.305Z,60.42
2023-05-13T06:06:02.437Z,57.14
2023-05-13T06:21:03.053Z,52.49
2023-05-13T06:36:03.574Z,50.52
2023-05-13T06:51:04.201Z,48.87
2023-05-13T07:06:04.264Z,45.83
2023-05-13T07:21:04.435Z,44.94
2023-05-13T07:36:04.396Z,42.29
2023-05-13T07:51:05.427Z,38.49
2023-05-13T08:06:05.449Z,41.55
2023-05-13T08:21:05.535Z,36.60
2023-05-13T08:36:05.618Z,36.95
2023-05-13T08:51:06.302Z,36.07
2023-05-13T09:06:06.462Z,35.31
2023-05-13T09:21:07.892Z,36.27
2023-05-13T09:36:08.401Z,34.40
2023-05-13T09:51:08.551Z,35.71
2023-05-13T10:06:08.886Z,36.10
2023-05-13T10:21:08.649Z,35.16
2023-05-13T10:36:08.916Z,36.71
2023-05-13T10:51:09.010Z,33.40
2023-05-13T11:06:08.991Z,34.00
2023-05-13T11:21:09.104Z,33.21
2023-05-13T11:36:09.101Z,34.05
2023-05-13T11:51:09.226Z,36.82
2023-05-13T12:06:10.225Z,34.12
2023-05-13T12:21:10.342Z,33.13
2023-05-13T12:36:10.355Z,29.54
2023-05-13T12:51:10.924Z,32.18
2023-05-13T13:06:11.632Z,31.38
2023-05-13T13:21:11.715Z,31.90
2023-05-13T13:36:11.662Z,30.45
2023-05-13T13:51:12.337Z,31.07
2023-05-13T14:06:12.482Z,31.26
2023-05-13T14:21:12.533Z,30.73
2023-05-13T14:36:12.615Z,33.74
2023-05-13T14:51:12.730Z,30.85
2023-05-13T15:06:12.816Z,31.57
2023-05-13T15:21:12.865Z,32.35
2023-05-13T15:36:13.057Z,30.96
2023-05-13T15:51:13.077Z,31.75
2023-05-13T16:06:13.254Z,32.26
2023-05-13T16:21:13.415Z,33.85
2023-05-13T16:36:13.579Z,37.41
2023-05-13T16:51:13.838Z,41.55
2023-05-13T17:06:16.096Z,47.40
2023-05-13T17:21:16.699Z,51.84
2023-05-13T17:36:16.786Z,52.14
2023-05-13T17:51:16.887Z,53.32
2023-05-13T18:06:17.238Z,55.71
2023-05-13T18:21:17.048Z,57.68
2023-05-13T18:36:17.724Z,59.77
2023-05-13T18:51:20.535Z,62.71
2023-05-13T19:06:20.935Z,63.24
2023-05-13T19:21:21.040Z,64.98
2023-05-13T19:36:21.475Z,67.61
2023-05-13T19:51:22.142Z,73.50
2023-05-13T20:06:22.218Z,76.82
2023-05-13T20:21:22.368Z,78.32
2023-05-13T20:36:22.384Z,82.24
2023-05-13T20:51:22.471Z,85.49
2023-05-13T21:06:22.550Z,90.27
2023-05-13T21:21:22.656Z,91.38
2023-05-13T21:36:22.763Z,93.71
2023-05-13T21:51:22.887Z,96.73
2023-05-13T22:06:22.983Z,97.95
2023-05-13T22:21:23.033Z,99.99
2023-05-13T22:36:23.112Z,99.99
2023-05-13T22:51:23.239Z,99.99
2023-05-13T23:06:23.827Z,99.73
2023-05-13T23:21:23.856Z,98.91
2023-05-13T23:36:23.955Z,96.90
2023-05-13T23:51:24.077Z,96.18
